sensor_id;sensor_type;location;lat;lon;timestamp;P1;durP1;ratioP1;P2;durP2;ratioP2
73170;SDS011;61381;50.118;19.962;2022-11-20T00:03:24;52.53;;;22.75;;
73170;SDS011;61381;50.118;19.962;2022-11-20T00:08:27;82.00;;;32.97;;
73170;SDS011;61381;50.118;19.962;2022-11-20T00:13:27;110.95;;;35.55;;
73170;SDS011;61381;50.118;19.962;2022-11-20T00:18:28;68.03;;;25.00;;
73170;SDS011;61381;50.118;19.962;2022-11-20T00:23:31;76.75;;;29.48;;
73170;SDS011;61381;50.118;19.962;2022-11-20T00:28:32;56.20;;;24.63;;
73170;SDS011;61381;50.118;19.962;2022-11-20T00:33:34;73.15;;;24.58;;
73170;SDS011;61381;50.118;19.962;2022-11-20T00:38:36;53.90;;;22.60;;
73170;SDS011;61381;50.118;19.962;2022-11-20T00:43:38;79.63;;;27.05;;
73170;SDS011;61381;50.118;19.962;2022-11-20T00:48:39;49.30;;;19.10;;
73170;SDS011;61381;50.118;19.962;2022-11-20T00:53:41;51.53;;;20.83;;
73170;SDS011;61381;50.118;19.962;2022-11-20T00:58:43;44.88;;;19.00;;
73170;SDS011;61381;50.118;19.962;2022-11-20T01:03:45;77.13;;;28.20;;
73170;SDS011;61381;50.118;19.962;2022-11-20T01:13:50;34.42;;;16.65;;
73170;SDS011;61381;50.118;19.962;2022-11-20T01:18:53;39.45;;;14.60;;
73170;SDS011;61381;50.118;19.962;2022-11-20T01:23:59;37.88;;;18.17;;
73170;SDS011;61381;50.118;19.962;2022-11-20T01:29:01;27.55;;;13.20;;
73170;SDS011;61381;50.118;19.962;2022-11-20T01:34:04;54.08;;;23.13;;
73170;SDS011;61381;50.118;19.962;2022-11-20T01:39:09;40.90;;;19.52;;
73170;SDS011;61381;50.118;19.962;2022-11-20T01:44:12;46.95;;;18.77;;
73170;SDS011;61381;50.118;19.962;2022-11-20T01:49:17;40.40;;;16.38;;
73170;SDS011;61381;50.118;19.962;2022-11-20T01:54:24;29.92;;;14.55;;
73170;SDS011;61381;50.118;19.962;2022-11-20T01:59:29;29.35;;;15.98;;
73170;SDS011;61381;50.118;19.962;2022-11-20T02:04:30;31.90;;;14.30;;
73170;SDS011;61381;50.118;19.962;2022-11-20T02:09:32;36.17;;;16.95;;
73170;SDS011;61381;50.118;19.962;2022-11-20T02:14:33;42.47;;;20.05;;
73170;SDS011;61381;50.118;19.962;2022-11-20T02:19:34;36.50;;;14.32;;
73170;SDS011;61381;50.118;19.962;2022-11-20T02:24:37;31.88;;;14.52;;
73170;SDS011;61381;50.118;19.962;2022-11-20T02:29:39;25.90;;;13.32;;
73170;SDS011;61381;50.118;19.962;2022-11-20T02:34:45;29.80;;;14.55;;
73170;SDS011;61381;50.118;19.962;2022-11-20T02:39:47;32.95;;;14.43;;
73170;SDS011;61381;50.118;19.962;2022-11-20T02:44:51;38.55;;;15.38;;
73170;SDS011;61381;50.118;19.962;2022-11-20T02:49:52;39.42;;;17.98;;
73170;SDS011;61381;50.118;19.962;2022-11-20T02:54:54;42.33;;;17.73;;
73170;SDS011;61381;50.118;19.962;2022-11-20T02:59:55;62.65;;;22.95;;
73170;SDS011;61381;50.118;19.962;2022-11-20T03:04:56;52.47;;;21.30;;
73170;SDS011;61381;50.118;19.962;2022-11-20T03:09:59;50.42;;;20.17;;
73170;SDS011;61381;50.118;19.962;2022-11-20T03:15:00;30.77;;;15.30;;
73170;SDS011;61381;50.118;19.962;2022-11-20T03:20:01;37.38;;;15.80;;
73170;SDS011;61381;50.118;19.962;2022-11-20T03:25:03;32.65;;;15.43;;
73170;SDS011;61381;50.118;19.962;2022-11-20T03:30:05;48.10;;;22.60;;
73170;SDS011;61381;50.118;19.962;2022-11-20T03:40:10;31.52;;;14.13;;
73170;SDS011;61381;50.118;19.962;2022-11-20T03:45:12;8.98;;;7.97;;
73170;SDS011;61381;50.118;19.962;2022-11-20T03:50:14;33.42;;;13.90;;
73170;SDS011;61381;50.118;19.962;2022-11-20T03:55:16;36.33;;;14.23;;
73170;SDS011;61381;50.118;19.962;2022-11-20T04:00:18;44.60;;;18.42;;
73170;SDS011;61381;50.118;19.962;2022-11-20T04:05:19;33.15;;;15.38;;
73170;SDS011;61381;50.118;19.962;2022-11-20T04:10:21;30.20;;;13.13;;
73170;SDS011;61381;50.118;19.962;2022-11-20T04:15:22;21.33;;;10.50;;
73170;SDS011;61381;50.118;19.962;2022-11-20T04:20:23;46.50;;;17.13;;
73170;SDS011;61381;50.118;19.962;2022-11-20T04:25:25;27.50;;;13.23;;
73170;SDS011;61381;50.118;19.962;2022-11-20T04:35:27;24.33;;;11.57;;
73170;SDS011;61381;50.118;19.962;2022-11-20T04:40:29;36.95;;;13.10;;
73170;SDS011;61381;50.118;19.962;2022-11-20T04:45:31;41.15;;;16.88;;
73170;SDS011;61381;50.118;19.962;2022-11-20T04:50:32;61.85;;;32.17;;
73170;SDS011;61381;50.118;19.962;2022-11-20T04:55:34;27.13;;;14.35;;
73170;SDS011;61381;50.118;19.962;2022-11-20T05:05:36;28.13;;;12.13;;
73170;SDS011;61381;50.118;19.962;2022-11-20T05:10:38;24.83;;;12.52;;
73170;SDS011;61381;50.118;19.962;2022-11-20T05:15:39;36.70;;;14.90;;
73170;SDS011;61381;50.118;19.962;2022-11-20T05:20:40;19.42;;;9.43;;
73170;SDS011;61381;50.118;19.962;2022-11-20T05:25:42;23.10;;;11.45;;
73170;SDS011;61381;50.118;19.962;2022-11-20T05:30:43;32.03;;;13.60;;
73170;SDS011;61381;50.118;19.962;2022-11-20T05:35:44;26.65;;;13.98;;
73170;SDS011;61381;50.118;19.962;2022-11-20T05:40:47;42.72;;;17.70;;
73170;SDS011;61381;50.118;19.962;2022-11-20T05:50:52;27.83;;;11.75;;
73170;SDS011;61381;50.118;19.962;2022-11-20T05:55:58;22.65;;;10.75;;
73170;SDS011;61381;50.118;19.962;2022-11-20T06:01:03;43.13;;;16.80;;
73170;SDS011;61381;50.118;19.962;2022-11-20T06:06:06;28.00;;;11.65;;
73170;SDS011;61381;50.118;19.962;2022-11-20T06:11:09;40.00;;;16.60;;
73170;SDS011;61381;50.118;19.962;2022-11-20T06:16:13;37.78;;;17.83;;
73170;SDS011;61381;50.118;19.962;2022-11-20T06:21:16;26.67;;;12.90;;
73170;SDS011;61381;50.118;19.962;2022-11-20T06:26:20;27.13;;;13.70;;
73170;SDS011;61381;50.118;19.962;2022-11-20T06:31:23;52.63;;;21.55;;
73170;SDS011;61381;50.118;19.962;2022-11-20T06:36:25;36.83;;;18.92;;
73170;SDS011;61381;50.118;19.962;2022-11-20T06:41:27;54.22;;;24.08;;
73170;SDS011;61381;50.118;19.962;2022-11-20T06:46:28;70.97;;;26.02;;
73170;SDS011;61381;50.118;19.962;2022-11-20T06:51:29;59.25;;;24.35;;
73170;SDS011;61381;50.118;19.962;2022-11-20T06:56:32;50.08;;;23.65;;
73170;SDS011;61381;50.118;19.962;2022-11-20T07:01:33;59.28;;;23.25;;
73170;SDS011;61381;50.118;19.962;2022-11-20T07:06:34;53.88;;;21.10;;
73170;SDS011;61381;50.118;19.962;2022-11-20T07:11:36;34.42;;;14.60;;
73170;SDS011;61381;50.118;19.962;2022-11-20T07:16:37;37.85;;;16.10;;
73170;SDS011;61381;50.118;19.962;2022-11-20T07:21:38;44.55;;;16.67;;
73170;SDS011;61381;50.118;19.962;2022-11-20T07:26:40;51.47;;;22.10;;
73170;SDS011;61381;50.118;19.962;2022-11-20T07:31:41;52.67;;;22.83;;
73170;SDS011;61381;50.118;19.962;2022-11-20T07:36:42;43.83;;;20.15;;
73170;SDS011;61381;50.118;19.962;2022-11-20T07:41:45;62.25;;;24.35;;
73170;SDS011;61381;50.118;19.962;2022-11-20T07:46:46;67.70;;;26.10;;
73170;SDS011;61381;50.118;19.962;2022-11-20T07:51:46;64.22;;;26.23;;
73170;SDS011;61381;50.118;19.962;2022-11-20T07:56:51;54.90;;;21.17;;
73170;SDS011;61381;50.118;19.962;2022-11-20T08:01:52;48.78;;;23.23;;
73170;SDS011;61381;50.118;19.962;2022-11-20T08:06:53;58.45;;;23.77;;
73170;SDS011;61381;50.118;19.962;2022-11-20T08:11:55;58.08;;;24.65;;
73170;SDS011;61381;50.118;19.962;2022-11-20T08:16:57;50.00;;;19.17;;
73170;SDS011;61381;50.118;19.962;2022-11-20T08:21:57;53.60;;;18.35;;
73170;SDS011;61381;50.118;19.962;2022-11-20T08:27:00;52.50;;;21.55;;
73170;SDS011;61381;50.118;19.962;2022-11-20T08:32:01;54.08;;;22.77;;
73170;SDS011;61381;50.118;19.962;2022-11-20T08:37:12;54.85;;;24.17;;
73170;SDS011;61381;50.118;19.962;2022-11-20T08:42:14;101.32;;;31.50;;
73170;SDS011;61381;50.118;19.962;2022-11-20T08:47:15;56.88;;;20.95;;
73170;SDS011;61381;50.118;19.962;2022-11-20T08:52:16;72.50;;;27.50;;
73170;SDS011;61381;50.118;19.962;2022-11-20T08:57:19;35.47;;;17.60;;
73170;SDS011;61381;50.118;19.962;2022-11-20T09:02:19;41.85;;;19.23;;
73170;SDS011;61381;50.118;19.962;2022-11-20T09:07:20;65.90;;;24.45;;
73170;SDS011;61381;50.118;19.962;2022-11-20T09:12:23;54.30;;;21.08;;
73170;SDS011;61381;50.118;19.962;2022-11-20T09:17:24;116.85;;;40.58;;
73170;SDS011;61381;50.118;19.962;2022-11-20T09:22:25;70.25;;;25.10;;
73170;SDS011;61381;50.118;19.962;2022-11-20T09:27:27;47.42;;;21.08;;
73170;SDS011;61381;50.118;19.962;2022-11-20T09:32:28;75.25;;;26.95;;
73170;SDS011;61381;50.118;19.962;2022-11-20T09:37:29;55.22;;;22.88;;
73170;SDS011;61381;50.118;19.962;2022-11-20T09:42:34;57.38;;;26.25;;
73170;SDS011;61381;50.118;19.962;2022-11-20T09:47:45;66.55;;;25.40;;
73170;SDS011;61381;50.118;19.962;2022-11-20T09:52:58;60.08;;;22.33;;
73170;SDS011;61381;50.118;19.962;2022-11-20T09:58:15;75.05;;;29.65;;
73170;SDS011;61381;50.118;19.962;2022-11-20T10:03:27;70.28;;;26.92;;
73170;SDS011;61381;50.118;19.962;2022-11-20T10:08:39;82.65;;;29.30;;
73170;SDS011;61381;50.118;19.962;2022-11-20T10:13:46;74.03;;;28.52;;
73170;SDS011;61381;50.118;19.962;2022-11-20T10:18:57;94.18;;;33.65;;
73170;SDS011;61381;50.118;19.962;2022-11-20T10:24:20;66.15;;;30.35;;
73170;SDS011;61381;50.118;19.962;2022-11-20T10:29:41;65.88;;;26.08;;
73170;SDS011;61381;50.118;19.962;2022-11-20T10:34:47;73.43;;;28.55;;
73170;SDS011;61381;50.118;19.962;2022-11-20T10:39:54;65.90;;;26.75;;
73170;SDS011;61381;50.118;19.962;2022-11-20T10:45:13;71.47;;;26.35;;
73170;SDS011;61381;50.118;19.962;2022-11-20T10:50:21;65.45;;;24.15;;
73170;SDS011;61381;50.118;19.962;2022-11-20T10:55:26;29.27;;;15.38;;
73170;SDS011;61381;50.118;19.962;2022-11-20T11:00:33;57.47;;;22.52;;
73170;SDS011;61381;50.118;19.962;2022-11-20T11:05:36;46.15;;;17.10;;
73170;SDS011;61381;50.118;19.962;2022-11-20T11:10:42;56.30;;;21.00;;
73170;SDS011;61381;50.118;19.962;2022-11-20T11:15:49;48.45;;;20.25;;
73170;SDS011;61381;50.118;19.962;2022-11-20T11:20:50;52.05;;;19.35;;
73170;SDS011;61381;50.118;19.962;2022-11-20T11:25:56;59.78;;;23.05;;
73170;SDS011;61381;50.118;19.962;2022-11-20T11:30:59;69.63;;;25.20;;
73170;SDS011;61381;50.118;19.962;2022-11-20T11:36:00;56.40;;;20.52;;
73170;SDS011;61381;50.118;19.962;2022-11-20T11:41:04;66.88;;;23.90;;
73170;SDS011;61381;50.118;19.962;2022-11-20T11:46:14;53.40;;;21.55;;
73170;SDS011;61381;50.118;19.962;2022-11-20T11:51:29;48.70;;;21.23;;
73170;SDS011;61381;50.118;19.962;2022-11-20T11:56:35;48.88;;;20.50;;
73170;SDS011;61381;50.118;19.962;2022-11-20T12:01:40;58.13;;;22.77;;
73170;SDS011;61381;50.118;19.962;2022-11-20T12:06:45;46.72;;;19.25;;
73170;SDS011;61381;50.118;19.962;2022-11-20T12:11:52;41.60;;;18.00;;
73170;SDS011;61381;50.118;19.962;2022-11-20T12:16:57;38.55;;;16.45;;
73170;SDS011;61381;50.118;19.962;2022-11-20T12:21:59;48.33;;;19.40;;
73170;SDS011;61381;50.118;19.962;2022-11-20T12:27:11;18.38;;;8.25;;
73170;SDS011;61381;50.118;19.962;2022-11-20T12:32:39;46.38;;;18.10;;
73170;SDS011;61381;50.118;19.962;2022-11-20T12:37:57;34.42;;;15.48;;
73170;SDS011;61381;50.118;19.962;2022-11-20T12:43:11;44.97;;;18.30;;
73170;SDS011;61381;50.118;19.962;2022-11-20T12:48:33;43.00;;;17.98;;
73170;SDS011;61381;50.118;19.962;2022-11-20T12:53:43;47.28;;;19.00;;
73170;SDS011;61381;50.118;19.962;2022-11-20T12:58:59;60.28;;;19.30;;
73170;SDS011;61381;50.118;19.962;2022-11-20T13:04:16;51.70;;;17.70;;
73170;SDS011;61381;50.118;19.962;2022-11-20T13:09:27;52.47;;;20.75;;
73170;SDS011;61381;50.118;19.962;2022-11-20T13:14:31;45.78;;;18.08;;
73170;SDS011;61381;50.118;19.962;2022-11-20T13:19:38;50.22;;;19.30;;
73170;SDS011;61381;50.118;19.962;2022-11-20T13:24:39;41.75;;;16.67;;
73170;SDS011;61381;50.118;19.962;2022-11-20T13:30:01;48.17;;;18.67;;
73170;SDS011;61381;50.118;19.962;2022-11-20T13:35:23;44.80;;;18.00;;
73170;SDS011;61381;50.118;19.962;2022-11-20T13:40:29;46.92;;;19.50;;
73170;SDS011;61381;50.118;19.962;2022-11-20T13:45:30;54.65;;;20.55;;
73170;SDS011;61381;50.118;19.962;2022-11-20T13:50:40;50.78;;;19.20;;
73170;SDS011;61381;50.118;19.962;2022-11-20T13:55:50;51.53;;;18.50;;
73170;SDS011;61381;50.118;19.962;2022-11-20T14:00:57;44.88;;;19.73;;
73170;SDS011;61381;50.118;19.962;2022-11-20T14:06:02;56.70;;;21.30;;
73170;SDS011;61381;50.118;19.962;2022-11-20T14:11:11;58.80;;;20.80;;
73170;SDS011;61381;50.118;19.962;2022-11-20T14:16:18;60.10;;;22.73;;
73170;SDS011;61381;50.118;19.962;2022-11-20T14:21:26;60.90;;;22.10;;
73170;SDS011;61381;50.118;19.962;2022-11-20T14:26:28;61.53;;;23.88;;
73170;SDS011;61381;50.118;19.962;2022-11-20T14:31:29;61.92;;;23.92;;
73170;SDS011;61381;50.118;19.962;2022-11-20T14:36:32;88.38;;;32.25;;
73170;SDS011;61381;50.118;19.962;2022-11-20T14:41:33;66.00;;;25.50;;
73170;SDS011;61381;50.118;19.962;2022-11-20T14:46:34;57.08;;;23.73;;
73170;SDS011;61381;50.118;19.962;2022-11-20T14:51:37;57.63;;;24.17;;
73170;SDS011;61381;50.118;19.962;2022-11-20T14:56:39;62.72;;;25.13;;
73170;SDS011;61381;50.118;19.962;2022-11-20T15:01:40;91.72;;;35.17;;
73170;SDS011;61381;50.118;19.962;2022-11-20T15:06:57;69.72;;;25.58;;
73170;SDS011;61381;50.118;19.962;2022-11-20T15:12:00;86.97;;;34.58;;
73170;SDS011;61381;50.118;19.962;2022-11-20T15:17:03;66.10;;;26.38;;
73170;SDS011;61381;50.118;19.962;2022-11-20T15:27:12;66.05;;;26.08;;
73170;SDS011;61381;50.118;19.962;2022-11-20T15:32:12;80.57;;;30.13;;
73170;SDS011;61381;50.118;19.962;2022-11-20T15:37:15;74.32;;;27.05;;
73170;SDS011;61381;50.118;19.962;2022-11-20T15:42:16;92.68;;;33.47;;
73170;SDS011;61381;50.118;19.962;2022-11-20T15:47:17;87.95;;;31.15;;
73170;SDS011;61381;50.118;19.962;2022-11-20T15:52:20;75.53;;;30.63;;
73170;SDS011;61381;50.118;19.962;2022-11-20T15:57:21;64.07;;;26.80;;
73170;SDS011;61381;50.118;19.962;2022-11-20T16:02:22;78.82;;;28.17;;
73170;SDS011;61381;50.118;19.962;2022-11-20T16:07:24;55.88;;;25.75;;
73170;SDS011;61381;50.118;19.962;2022-11-20T16:12:25;95.70;;;34.63;;
73170;SDS011;61381;50.118;19.962;2022-11-20T16:17:27;63.95;;;25.70;;
73170;SDS011;61381;50.118;19.962;2022-11-20T16:22:29;71.60;;;28.25;;
73170;SDS011;61381;50.118;19.962;2022-11-20T16:27:30;79.38;;;27.38;;
73170;SDS011;61381;50.118;19.962;2022-11-20T16:32:31;80.13;;;30.08;;
73170;SDS011;61381;50.118;19.962;2022-11-20T16:37:34;78.30;;;30.17;;
73170;SDS011;61381;50.118;19.962;2022-11-20T16:42:35;83.28;;;32.67;;
73170;SDS011;61381;50.118;19.962;2022-11-20T16:47:36;79.38;;;28.20;;
73170;SDS011;61381;50.118;19.962;2022-11-20T16:52:39;83.00;;;29.80;;
73170;SDS011;61381;50.118;19.962;2022-11-20T16:57:40;91.15;;;32.95;;
73170;SDS011;61381;50.118;19.962;2022-11-20T17:02:40;85.80;;;34.63;;
73170;SDS011;61381;50.118;19.962;2022-11-20T17:07:43;87.88;;;33.13;;
73170;SDS011;61381;50.118;19.962;2022-11-20T17:12:44;87.60;;;36.08;;
73170;SDS011;61381;50.118;19.962;2022-11-20T17:17:44;83.95;;;32.22;;
73170;SDS011;61381;50.118;19.962;2022-11-20T17:22:48;89.95;;;32.10;;
73170;SDS011;61381;50.118;19.962;2022-11-20T17:27:49;84.75;;;33.72;;
73170;SDS011;61381;50.118;19.962;2022-11-20T17:32:49;89.70;;;35.53;;
73170;SDS011;61381;50.118;19.962;2022-11-20T17:37:52;93.10;;;37.85;;
73170;SDS011;61381;50.118;19.962;2022-11-20T17:42:53;96.93;;;35.53;;
73170;SDS011;61381;50.118;19.962;2022-11-20T17:47:54;82.43;;;31.80;;
73170;SDS011;61381;50.118;19.962;2022-11-20T17:52:56;87.78;;;34.60;;
73170;SDS011;61381;50.118;19.962;2022-11-20T17:57:57;94.90;;;33.55;;
73170;SDS011;61381;50.118;19.962;2022-11-20T18:02:58;91.72;;;30.27;;
73170;SDS011;61381;50.118;19.962;2022-11-20T18:08:00;85.38;;;33.08;;
73170;SDS011;61381;50.118;19.962;2022-11-20T18:13:01;99.85;;;36.63;;
73170;SDS011;61381;50.118;19.962;2022-11-20T18:18:02;77.65;;;30.90;;
73170;SDS011;61381;50.118;19.962;2022-11-20T18:23:05;89.93;;;34.08;;
73170;SDS011;61381;50.118;19.962;2022-11-20T18:28:06;82.65;;;33.85;;
73170;SDS011;61381;50.118;19.962;2022-11-20T18:33:07;97.80;;;37.80;;
73170;SDS011;61381;50.118;19.962;2022-11-20T18:38:09;96.53;;;36.22;;
73170;SDS011;61381;50.118;19.962;2022-11-20T18:43:10;102.15;;;37.22;;
73170;SDS011;61381;50.118;19.962;2022-11-20T18:48:11;132.45;;;46.30;;
73170;SDS011;61381;50.118;19.962;2022-11-20T18:53:13;100.05;;;36.05;;
73170;SDS011;61381;50.118;19.962;2022-11-20T18:58:14;102.40;;;39.03;;
73170;SDS011;61381;50.118;19.962;2022-11-20T19:03:15;119.03;;;43.50;;
73170;SDS011;61381;50.118;19.962;2022-11-20T19:08:17;90.63;;;35.38;;
73170;SDS011;61381;50.118;19.962;2022-11-20T19:13:18;113.07;;;39.53;;
73170;SDS011;61381;50.118;19.962;2022-11-20T19:18:19;104.47;;;38.78;;
73170;SDS011;61381;50.118;19.962;2022-11-20T19:23:22;137.93;;;48.88;;
73170;SDS011;61381;50.118;19.962;2022-11-20T19:28:23;112.60;;;40.20;;
73170;SDS011;61381;50.118;19.962;2022-11-20T19:33:23;160.05;;;57.67;;
73170;SDS011;61381;50.118;19.962;2022-11-20T19:38:26;99.70;;;37.33;;
73170;SDS011;61381;50.118;19.962;2022-11-20T19:43:27;128.27;;;44.97;;
73170;SDS011;61381;50.118;19.962;2022-11-20T19:48:28;102.97;;;38.60;;
73170;SDS011;61381;50.118;19.962;2022-11-20T19:53:31;120.47;;;44.75;;
73170;SDS011;61381;50.118;19.962;2022-11-20T19:58:32;112.78;;;39.35;;
73170;SDS011;61381;50.118;19.962;2022-11-20T20:03:33;108.38;;;38.30;;
73170;SDS011;61381;50.118;19.962;2022-11-20T20:08:35;101.53;;;38.75;;
73170;SDS011;61381;50.118;19.962;2022-11-20T20:13:37;97.95;;;39.03;;
73170;SDS011;61381;50.118;19.962;2022-11-20T20:18:38;131.07;;;45.95;;
73170;SDS011;61381;50.118;19.962;2022-11-20T20:23:40;77.85;;;33.00;;
73170;SDS011;61381;50.118;19.962;2022-11-20T20:28:42;109.38;;;42.63;;
73170;SDS011;61381;50.118;19.962;2022-11-20T20:33:43;98.30;;;40.65;;
73170;SDS011;61381;50.118;19.962;2022-11-20T20:43:47;107.90;;;41.38;;
73170;SDS011;61381;50.118;19.962;2022-11-20T20:48:48;99.35;;;39.88;;
73170;SDS011;61381;50.118;19.962;2022-11-20T20:53:50;123.68;;;49.45;;
73170;SDS011;61381;50.118;19.962;2022-11-20T20:58:51;112.80;;;42.03;;
73170;SDS011;61381;50.118;19.962;2022-11-20T21:03:52;106.35;;;42.63;;
73170;SDS011;61381;50.118;19.962;2022-11-20T21:08:55;141.60;;;50.90;;
73170;SDS011;61381;50.118;19.962;2022-11-20T21:13:55;129.63;;;50.88;;
73170;SDS011;61381;50.118;19.962;2022-11-20T21:18:56;122.35;;;43.60;;
73170;SDS011;61381;50.118;19.962;2022-11-20T21:23:59;119.35;;;44.90;;
73170;SDS011;61381;50.118;19.962;2022-11-20T21:29:00;106.28;;;38.55;;
73170;SDS011;61381;50.118;19.962;2022-11-20T21:34:01;131.02;;;48.65;;
73170;SDS011;61381;50.118;19.962;2022-11-20T21:44:05;126.20;;;47.55;;
73170;SDS011;61381;50.118;19.962;2022-11-20T21:49:07;111.80;;;43.97;;
73170;SDS011;61381;50.118;19.962;2022-11-20T21:54:09;126.38;;;47.00;;
73170;SDS011;61381;50.118;19.962;2022-11-20T21:59:10;108.50;;;45.97;;
73170;SDS011;61381;50.118;19.962;2022-11-20T22:04:12;139.63;;;53.00;;
73170;SDS011;61381;50.118;19.962;2022-11-20T22:14:16;188.82;;;65.78;;
73170;SDS011;61381;50.118;19.962;2022-11-20T22:19:17;156.73;;;59.58;;
73170;SDS011;61381;50.118;19.962;2022-11-20T22:24:20;164.85;;;62.60;;
73170;SDS011;61381;50.118;19.962;2022-11-20T22:29:22;148.30;;;54.78;;
73170;SDS011;61381;50.118;19.962;2022-11-20T22:34:23;141.15;;;54.30;;
73170;SDS011;61381;50.118;19.962;2022-11-20T22:39:25;144.90;;;56.40;;
73170;SDS011;61381;50.118;19.962;2022-11-20T22:44:26;190.68;;;66.68;;
73170;SDS011;61381;50.118;19.962;2022-11-20T22:49:27;165.82;;;61.72;;
73170;SDS011;61381;50.118;19.962;2022-11-20T22:54:29;147.90;;;53.80;;
73170;SDS011;61381;50.118;19.962;2022-11-20T22:59:30;166.57;;;58.38;;
73170;SDS011;61381;50.118;19.962;2022-11-20T23:04:31;196.70;;;70.35;;
73170;SDS011;61381;50.118;19.962;2022-11-20T23:09:33;169.40;;;63.85;;
73170;SDS011;61381;50.118;19.962;2022-11-20T23:14:34;188.95;;;64.45;;
73170;SDS011;61381;50.118;19.962;2022-11-20T23:19:35;151.63;;;56.90;;
73170;SDS011;61381;50.118;19.962;2022-11-20T23:24:37;183.20;;;71.30;;
73170;SDS011;61381;50.118;19.962;2022-11-20T23:29:38;123.95;;;55.05;;
73170;SDS011;61381;50.118;19.962;2022-11-20T23:34:39;199.07;;;83.45;;
73170;SDS011;61381;50.118;19.962;2022-11-20T23:39:42;216.77;;;87.75;;
73170;SDS011;61381;50.118;19.962;2022-11-20T23:44:42;189.20;;;68.13;;
73170;SDS011;61381;50.118;19.962;2022-11-20T23:49:43;118.18;;;48.70;;
73170;SDS011;61381;50.118;19.962;2022-11-20T23:54:46;158.95;;;55.05;;
73170;SDS011;61381;50.118;19.962;2022-11-20T23:59:47;129.38;;;47.97;;
